createdAt,value
2019-02-26T00:00:37.016Z,47.30
2019-02-26T00:03:07.266Z,49.60
2019-02-26T00:05:37.618Z,48.70
2019-02-26T00:08:07.873Z,46.90
2019-02-26T00:10:39.138Z,45.30
2019-02-26T00:13:09.517Z,45.80
2019-02-26T00:15:40.497Z,45.40
2019-02-26T00:18:14.039Z,45.00
2019-02-26T00:20:43.705Z,44.40
2019-02-26T00:23:13.846Z,44.80
2019-02-26T00:25:44.120Z,48.00
2019-02-26T00:28:15.883Z,49.50
2019-02-26T00:30:46.302Z,49.70
2019-02-26T00:33:16.978Z,45.50
2019-02-26T00:35:50.167Z,49.60
2019-02-26T00:38:20.527Z,47.10
2019-02-26T00:40:50.861Z,46.00
2019-02-26T00:43:23.710Z,46.20
2019-02-26T00:45:53.344Z,44.40
2019-02-26T00:48:25.039Z,44.20
2019-02-26T00:50:56.584Z,44.60
2019-02-26T00:53:28.432Z,44.10
2019-02-26T00:56:01.124Z,45.50
2019-02-26T00:58:32.066Z,48.50
2019-02-26T01:01:02.864Z,45.40
2019-02-26T01:03:33.069Z,45.20
2019-02-26T01:06:04.120Z,49.60
2019-02-26T01:08:35.826Z,48.80
2019-02-26T01:11:08.309Z,45.80
2019-02-26T01:13:38.755Z,51.30
2019-02-26T01:16:08.963Z,51.90
2019-02-26T01:18:39.279Z,50.10
2019-02-26T01:21:09.420Z,49.50
2019-02-26T01:23:39.670Z,47.10
2019-02-26T01:26:11.862Z,48.20
2019-02-26T01:28:44.095Z,52.70
2019-02-26T01:31:13.858Z,49.00
2019-02-26T01:33:46.249Z,48.90
2019-02-26T01:36:16.928Z,49.40
2019-02-26T01:38:49.174Z,46.10
2019-02-26T01:41:20.992Z,46.00
2019-02-26T01:43:52.037Z,45.80
2019-02-26T01:46:22.383Z,46.30
2019-02-26T01:48:52.969Z,46.20
2019-02-26T01:51:25.988Z,49.40
2019-02-26T01:53:56.310Z,48.30
2019-02-26T01:56:26.494Z,49.10
2019-02-26T01:58:59.447Z,49.80
2019-02-26T02:01:28.544Z,46.20
2019-02-26T02:03:58.795Z,45.10
2019-02-26T02:06:30.344Z,49.60
2019-02-26T02:09:00.988Z,47.50
2019-02-26T02:11:32.988Z,46.00
2019-02-26T02:14:04.213Z,49.30
2019-02-26T02:16:35.117Z,50.80
2019-02-26T02:19:05.369Z,51.30
2019-02-26T02:21:37.392Z,49.50
2019-02-26T02:24:10.790Z,50.40
2019-02-26T02:26:42.946Z,46.70
2019-02-26T02:29:12.858Z,45.60
2019-02-26T02:31:43.382Z,49.20
2019-02-26T02:34:13.665Z,51.40
2019-02-26T02:36:44.046Z,48.40
2019-02-26T02:39:15.637Z,47.00
2019-02-26T02:41:48.757Z,47.10
2019-02-26T02:44:20.366Z,46.80
2019-02-26T02:46:50.072Z,49.70
2019-02-26T02:49:20.435Z,49.60
2019-02-26T02:51:50.682Z,48.00
2019-02-26T02:54:21.710Z,53.60
2019-02-26T02:56:52.844Z,55.90
2019-02-26T02:59:23.039Z,56.10
2019-02-26T03:01:55.354Z,48.00
2019-02-26T03:04:28.268Z,46.80
2019-02-26T03:06:58.645Z,47.60
2019-02-26T03:09:31.118Z,47.40
2019-02-26T03:12:01.228Z,47.20
2019-02-26T03:14:33.822Z,47.40
2019-02-26T03:17:05.659Z,47.10
2019-02-26T03:19:37.602Z,49.50
2019-02-26T03:22:09.617Z,51.70
2019-02-26T03:24:39.264Z,53.40
2019-02-26T03:27:09.462Z,49.40
2019-02-26T03:29:39.666Z,52.70
2019-02-26T03:32:09.819Z,50.10
2019-02-26T03:34:40.048Z,49.80
2019-02-26T03:37:11.045Z,48.70
2019-02-26T03:39:41.574Z,47.30
2019-02-26T03:42:14.115Z,49.00
2019-02-26T03:44:46.256Z,48.00
2019-02-26T03:47:16.331Z,50.60
2019-02-26T03:49:47.514Z,48.90
2019-02-26T03:52:17.706Z,50.90
2019-02-26T03:54:48.662Z,50.70
2019-02-26T03:57:22.072Z,51.40
2019-02-26T03:59:51.827Z,49.50
2019-02-26T04:02:23.501Z,51.90
2019-02-26T04:04:54.407Z,53.30
2019-02-26T04:07:27.849Z,51.60
2019-02-26T04:09:58.547Z,51.20
2019-02-26T04:12:28.966Z,48.40
2019-02-26T04:14:59.155Z,47.90
2019-02-26T04:17:30.756Z,48.60
2019-02-26T04:20:02.632Z,47.80
2019-02-26T04:22:35.159Z,47.30
2019-02-26T04:25:33.357Z,48.10
2019-02-26T04:28:21.595Z,47.70
2019-02-26T04:31:21.959Z,47.40
2019-02-26T04:34:29.271Z,47.70
2019-02-26T04:37:46.398Z,50.00
2019-02-26T04:41:00.415Z,51.40
2019-02-26T04:44:07.419Z,50.40
2019-02-26T04:46:59.574Z,49.20
2019-02-26T04:49:30.860Z,48.10
2019-02-26T04:52:02.976Z,52.30
2019-02-26T04:54:33.734Z,51.80
2019-02-26T04:57:05.389Z,50.00
2019-02-26T04:59:37.906Z,49.20
2019-02-26T05:02:07.643Z,50.70
2019-02-26T05:04:40.030Z,56.40
2019-02-26T05:07:13.198Z,54.10
2019-02-26T05:09:42.247Z,51.70
2019-02-26T05:12:12.523Z,50.10
2019-02-26T05:14:42.773Z,49.80
2019-02-26T05:17:13.087Z,50.20
2019-02-26T05:19:46.007Z,55.20
2019-02-26T05:22:15.185Z,50.90
2019-02-26T05:24:47.506Z,50.90
2019-02-26T05:27:19.740Z,56.00
2019-02-26T05:29:52.516Z,58.80
2019-02-26T05:32:24.099Z,51.30
2019-02-26T05:34:53.530Z,58.10
2019-02-26T05:37:23.802Z,57.60
2019-02-26T05:39:54.587Z,52.70
2019-02-26T05:42:25.217Z,50.30
2019-02-26T05:44:59.073Z,50.20
2019-02-26T05:47:27.567Z,50.40
2019-02-26T05:49:59.606Z,49.30
2019-02-26T05:52:30.688Z,49.40
2019-02-26T05:55:01.700Z,52.40
2019-02-26T05:57:32.712Z,49.30
2019-02-26T06:00:03.159Z,48.50
2019-02-26T06:02:33.459Z,50.80
2019-02-26T06:05:03.823Z,49.60
2019-02-26T06:07:36.794Z,52.60
2019-02-26T06:10:06.372Z,54.30
2019-02-26T06:12:39.723Z,49.40
2019-02-26T06:15:08.708Z,51.60
2019-02-26T06:17:43.064Z,55.30
2019-02-26T06:20:19.654Z,53.30
2019-02-26T06:22:49.952Z,53.70
2019-02-26T06:25:24.074Z,50.00
2019-02-26T06:27:52.021Z,54.20
2019-02-26T06:30:22.351Z,51.70
2019-02-26T06:32:52.578Z,52.80
2019-02-26T06:35:22.748Z,51.80
2019-02-26T06:37:52.940Z,52.50
2019-02-26T06:40:23.193Z,51.80
2019-02-26T06:42:53.408Z,53.10
2019-02-26T06:45:23.632Z,51.60
2019-02-26T06:47:54.613Z,49.90
2019-02-26T06:50:25.814Z,55.00
2019-02-26T06:52:56.130Z,51.50
2019-02-26T06:55:26.434Z,52.10
2019-02-26T06:58:25.364Z,53.60
2019-02-26T07:00:56.756Z,56.20
2019-02-26T07:03:27.131Z,57.60
2019-02-26T07:06:01.623Z,51.40
2019-02-26T07:08:31.040Z,50.40
2019-02-26T07:11:03.639Z,50.20
2019-02-26T07:13:33.947Z,51.10
2019-02-26T07:16:05.351Z,49.70
2019-02-26T07:18:35.609Z,51.50
2019-02-26T07:21:05.896Z,55.70
2019-02-26T07:23:38.202Z,51.80
2019-02-26T07:26:08.135Z,52.50
2019-02-26T07:28:39.678Z,49.90
2019-02-26T07:31:12.135Z,52.60
2019-02-26T07:33:42.597Z,57.20
2019-02-26T07:36:12.885Z,55.50
2019-02-26T07:38:46.054Z,67.10
2019-02-26T07:41:15.164Z,70.60
2019-02-26T07:43:46.865Z,55.40
2019-02-26T07:46:19.207Z,54.30
2019-02-26T07:48:53.652Z,61.70
2019-02-26T07:51:21.246Z,70.70
2019-02-26T07:53:53.498Z,71.30
2019-02-26T07:56:25.541Z,61.10
2019-02-26T07:58:59.016Z,64.50
2019-02-26T08:01:27.338Z,80.00
2019-02-26T08:03:57.529Z,75.00
2019-02-26T08:06:29.392Z,69.90
2019-02-26T08:08:59.826Z,69.60
2019-02-26T08:11:30.094Z,82.20
2019-02-26T08:14:01.565Z,84.80
2019-02-26T08:16:31.945Z,66.30
2019-02-26T08:19:02.212Z,75.20
2019-02-26T08:21:32.467Z,64.80
2019-02-26T08:24:02.763Z,71.00
2019-02-26T08:26:33.078Z,68.50
2019-02-26T08:29:05.123Z,79.20
2019-02-26T08:31:35.242Z,80.10
2019-02-26T08:34:05.551Z,67.00
2019-02-26T08:36:35.919Z,66.60
2019-02-26T08:39:08.255Z,67.20
2019-02-26T08:41:38.520Z,77.70
2019-02-26T08:44:08.809Z,68.30
2019-02-26T08:46:39.872Z,67.50
2019-02-26T08:49:11.612Z,67.50
2019-02-26T08:51:42.936Z,63.50
2019-02-26T08:54:20.633Z,69.50
2019-02-26T08:56:44.976Z,74.30
2019-02-26T08:59:17.293Z,63.60
2019-02-26T09:01:47.188Z,60.80
2019-02-26T09:04:19.305Z,67.60
2019-02-26T09:06:50.576Z,74.20
2019-02-26T09:09:22.960Z,75.90
2019-02-26T09:11:55.238Z,66.50
2019-02-26T09:14:25.327Z,70.20
2019-02-26T09:16:57.070Z,78.20
2019-02-26T09:19:30.105Z,75.70
2019-02-26T09:21:59.597Z,64.60
2019-02-26T09:24:29.818Z,61.60
2019-02-26T09:27:02.328Z,72.70
2019-02-26T09:29:34.135Z,64.80
2019-02-26T09:32:06.646Z,67.90
2019-02-26T09:34:37.823Z,72.70
2019-02-26T09:37:08.115Z,63.00
2019-02-26T09:39:39.092Z,60.90
2019-02-26T09:42:09.513Z,61.10
2019-02-26T09:44:39.774Z,60.50
2019-02-26T09:47:10.063Z,60.70
2019-02-26T09:49:40.355Z,59.60
2019-02-26T09:52:10.475Z,58.80
2019-02-26T09:54:42.911Z,58.60
2019-02-26T09:57:15.512Z,60.30
2019-02-26T09:59:44.791Z,58.60
2019-02-26T10:02:17.191Z,58.80
2019-02-26T10:04:47.812Z,59.20
2019-02-26T10:07:18.856Z,59.00
2019-02-26T10:09:49.053Z,58.30
2019-02-26T10:12:19.431Z,57.90
2019-02-26T10:14:50.649Z,57.80
2019-02-26T10:17:21.712Z,58.10
2019-02-26T10:19:51.925Z,58.10
2019-02-26T10:22:22.217Z,57.80
2019-02-26T10:24:52.425Z,58.00
2019-02-26T10:27:22.722Z,57.50
2019-02-26T10:29:52.977Z,56.80
2019-02-26T10:32:24.296Z,57.00
2019-02-26T10:34:55.091Z,57.20
2019-02-26T10:37:25.358Z,57.40
2019-02-26T10:39:55.608Z,57.20
2019-02-26T10:42:25.789Z,57.30
2019-02-26T10:44:56.498Z,57.00
2019-02-26T10:47:27.442Z,57.70
2019-02-26T10:49:58.779Z,57.30
2019-02-26T10:52:28.978Z,57.00
2019-02-26T10:54:59.254Z,56.90
2019-02-26T10:57:31.084Z,56.90
2019-02-26T11:00:02.598Z,55.40
2019-02-26T11:02:33.676Z,56.40
2019-02-26T11:05:04.303Z,56.70
2019-02-26T11:07:37.520Z,55.50
2019-02-26T11:10:07.032Z,56.80
2019-02-26T11:12:37.231Z,53.70
2019-02-26T11:15:09.266Z,56.30
2019-02-26T11:17:39.630Z,56.40
2019-02-26T11:20:10.337Z,55.60
2019-02-26T11:22:42.346Z,56.40
2019-02-26T11:25:13.375Z,54.60
2019-02-26T11:27:45.997Z,51.10
2019-02-26T11:30:20.499Z,54.10
2019-02-26T11:32:49.856Z,52.10
2019-02-26T11:35:22.029Z,55.40
2019-02-26T11:37:53.142Z,55.50
2019-02-26T11:40:25.271Z,55.90
2019-02-26T11:42:56.171Z,55.50
2019-02-26T11:45:26.398Z,54.00
2019-02-26T11:47:57.999Z,46.00
2019-02-26T11:50:28.611Z,53.70
2019-02-26T11:52:59.186Z,44.40
2019-02-26T11:55:32.006Z,52.10
2019-02-26T11:58:05.638Z,52.40
2019-02-26T12:00:52.486Z,48.00
2019-02-26T12:03:25.026Z,52.50
2019-02-26T12:05:56.645Z,52.20
2019-02-26T12:08:26.722Z,53.10
2019-02-26T12:11:01.051Z,53.70
2019-02-26T12:13:29.010Z,46.10
2019-02-26T12:15:59.302Z,52.70
2019-02-26T12:18:29.564Z,52.80
2019-02-26T12:21:00.210Z,54.70
2019-02-26T12:23:31.670Z,53.30
2019-02-26T12:26:03.782Z,49.10
2019-02-26T12:28:35.917Z,52.20
2019-02-26T12:31:08.076Z,51.90
2019-02-26T12:33:37.853Z,48.20
2019-02-26T12:36:09.811Z,46.60
2019-02-26T12:38:39.982Z,50.60
2019-02-26T12:41:12.302Z,50.90
2019-02-26T12:43:45.826Z,52.30
2019-02-26T12:46:14.129Z,46.70
2019-02-26T12:48:46.861Z,52.70
2019-02-26T12:51:16.326Z,50.40
2019-02-26T12:53:49.859Z,48.80
2019-02-26T12:56:20.674Z,53.30
2019-02-26T12:58:53.938Z,54.10
2019-02-26T13:01:22.806Z,49.60
2019-02-26T13:03:54.989Z,49.90
2019-02-26T13:06:25.001Z,50.60
2019-02-26T13:08:55.192Z,52.90
2019-02-26T13:11:25.543Z,48.50
2019-02-26T13:13:55.812Z,51.40
2019-02-26T13:16:26.115Z,51.60
2019-02-26T13:19:00.663Z,44.30
2019-02-26T13:21:28.238Z,52.20
2019-02-26T13:24:03.600Z,48.00
2019-02-26T13:26:36.054Z,53.00
2019-02-26T13:29:02.577Z,48.60
2019-02-26T13:31:36.022Z,49.00
2019-02-26T13:34:04.773Z,51.70
2019-02-26T13:36:36.902Z,48.20
2019-02-26T13:39:08.009Z,49.50
2019-02-26T13:41:39.034Z,43.40
2019-02-26T13:44:09.738Z,48.40
2019-02-26T13:46:39.895Z,49.30
2019-02-26T13:49:10.087Z,46.60
2019-02-26T13:51:40.391Z,44.20
2019-02-26T13:54:10.701Z,44.70
2019-02-26T13:56:40.934Z,47.70
2019-02-26T13:59:11.457Z,43.60
2019-02-26T14:01:41.803Z,44.00
2019-02-26T14:04:12.156Z,42.70
2019-02-26T14:06:42.457Z,42.40
2019-02-26T14:09:12.777Z,41.20
2019-02-26T14:11:43.054Z,38.70
2019-02-26T14:14:13.269Z,41.60
2019-02-26T14:16:43.852Z,38.50
2019-02-26T14:19:14.144Z,39.60
2019-02-26T14:21:44.527Z,40.40
2019-02-26T14:24:14.725Z,39.10
2019-02-26T14:26:45.075Z,38.30
2019-02-26T14:29:15.448Z,39.30
2019-02-26T14:31:45.637Z,37.50
2019-02-26T14:34:15.856Z,37.00
2019-02-26T14:36:46.335Z,38.80
2019-02-26T14:39:16.724Z,38.50
2019-02-26T14:41:47.058Z,36.50
2019-02-26T14:44:17.392Z,37.70
2019-02-26T14:46:47.686Z,28.90
2019-02-26T14:49:18.423Z,38.30
2019-02-26T14:51:48.662Z,35.30
2019-02-26T14:54:18.873Z,39.00
2019-02-26T14:56:49.172Z,38.70
2019-02-26T14:59:19.796Z,39.20
2019-02-26T15:01:50.096Z,38.40
2019-02-26T15:04:20.348Z,38.20
2019-02-26T15:06:50.710Z,35.20
2019-02-26T15:09:21.063Z,36.60
2019-02-26T15:11:51.604Z,37.30
2019-02-26T15:14:21.934Z,38.20
2019-02-26T15:16:52.316Z,35.40
2019-02-26T15:19:22.515Z,38.10
2019-02-26T15:21:52.800Z,36.10
2019-02-26T15:24:23.110Z,37.60
2019-02-26T15:26:53.531Z,37.00
2019-02-26T15:29:23.675Z,36.20
2019-02-26T15:31:53.884Z,37.80
2019-02-26T15:34:24.061Z,37.80
2019-02-26T15:36:54.447Z,37.80
2019-02-26T15:39:24.617Z,37.00
2019-02-26T15:41:54.846Z,37.50
2019-02-26T15:44:26.180Z,37.80
2019-02-26T15:46:59.622Z,37.60
2019-02-26T15:49:29.178Z,37.10
2019-02-26T15:51:59.441Z,37.90
2019-02-26T15:54:29.758Z,38.00
2019-02-26T15:57:00.591Z,37.60
2019-02-26T15:59:35.258Z,38.10
2019-02-26T16:02:03.294Z,37.70
2019-02-26T16:04:33.533Z,37.80
2019-02-26T16:07:03.846Z,38.00
2019-02-26T16:09:35.706Z,37.90
2019-02-26T16:12:06.155Z,37.30
2019-02-26T16:14:36.581Z,37.80
2019-02-26T16:17:06.996Z,37.40
2019-02-26T16:19:37.349Z,38.00
2019-02-26T16:22:07.630Z,37.60
2019-02-26T16:24:37.892Z,37.70
2019-02-26T16:27:08.109Z,37.90
2019-02-26T16:29:38.397Z,37.20
2019-02-26T16:32:09.169Z,37.40
2019-02-26T16:34:39.576Z,37.30
2019-02-26T16:37:09.803Z,37.30
2019-02-26T16:39:40.385Z,36.90
2019-02-26T16:42:11.747Z,36.70
2019-02-26T16:44:42.629Z,36.00
2019-02-26T16:47:14.643Z,36.40
2019-02-26T16:49:45.043Z,36.60
2019-02-26T16:52:15.273Z,35.60
2019-02-26T16:54:45.563Z,36.20
2019-02-26T16:57:16.012Z,34.90
2019-02-26T16:59:46.331Z,35.70
2019-02-26T17:02:16.941Z,36.20
2019-02-26T17:04:47.143Z,35.40
2019-02-26T17:07:17.402Z,34.70
2019-02-26T17:09:47.799Z,35.40
2019-02-26T17:12:18.051Z,35.10
2019-02-26T17:14:50.407Z,35.80
2019-02-26T17:17:20.484Z,35.70
2019-02-26T17:19:50.795Z,35.30
2019-02-26T17:22:21.125Z,35.00
2019-02-26T17:24:53.375Z,34.90
2019-02-26T17:27:23.459Z,34.90
2019-02-26T17:29:53.692Z,34.70
2019-02-26T17:32:23.914Z,35.10
2019-02-26T17:34:55.741Z,35.40
2019-02-26T17:37:26.134Z,35.30
2019-02-26T17:39:56.508Z,35.30
2019-02-26T17:42:26.807Z,35.10
2019-02-26T17:44:57.176Z,35.00
2019-02-26T17:47:27.460Z,35.00
2019-02-26T17:49:57.756Z,35.20
2019-02-26T17:52:28.050Z,35.20
2019-02-26T17:54:58.383Z,35.10
2019-02-26T17:57:28.668Z,35.00
2019-02-26T17:59:59.038Z,35.20
2019-02-26T18:02:29.355Z,35.20
2019-02-26T18:05:00.778Z,35.10
2019-02-26T18:07:31.880Z,35.10
2019-02-26T18:10:02.296Z,35.10
2019-02-26T18:12:32.672Z,35.40
2019-02-26T18:15:03.032Z,35.50
2019-02-26T18:17:33.234Z,35.30
2019-02-26T18:20:03.704Z,35.50
2019-02-26T18:22:34.094Z,35.50
2019-02-26T18:25:04.458Z,35.80
2019-02-26T18:27:34.827Z,35.40
2019-02-26T18:30:05.837Z,35.20
2019-02-26T18:32:36.143Z,34.90
2019-02-26T18:35:06.405Z,35.00
2019-02-26T18:37:36.646Z,34.90
2019-02-26T18:40:07.587Z,35.00
2019-02-26T18:42:41.018Z,35.10
2019-02-26T18:45:13.171Z,35.50
2019-02-26T18:47:43.530Z,35.60
2019-02-26T18:50:13.751Z,35.10
2019-02-26T18:52:44.010Z,35.00
2019-02-26T18:55:15.280Z,34.90
2019-02-26T18:57:45.499Z,35.30
2019-02-26T19:00:25.583Z,36.90
2019-02-26T19:02:53.187Z,36.60
2019-02-26T19:05:23.761Z,35.90
2019-02-26T19:07:54.267Z,35.90
2019-02-26T19:10:24.637Z,35.80
2019-02-26T19:12:54.999Z,35.70
2019-02-26T19:15:25.440Z,35.70
2019-02-26T19:17:57.061Z,35.80
2019-02-26T19:20:28.519Z,35.70
2019-02-26T19:22:59.571Z,36.00
2019-02-26T19:25:30.073Z,35.70
2019-02-26T19:28:00.473Z,35.90
2019-02-26T19:30:30.852Z,36.40
2019-02-26T19:33:01.096Z,35.80
2019-02-26T19:35:34.828Z,36.10
2019-02-26T19:38:03.398Z,36.10
2019-02-26T19:40:38.782Z,35.90
2019-02-26T19:43:08.468Z,37.10
2019-02-26T19:45:38.734Z,37.20
2019-02-26T19:48:08.997Z,37.50
2019-02-26T19:50:39.295Z,38.20
2019-02-26T19:53:10.776Z,38.40
2019-02-26T19:55:41.335Z,37.20
2019-02-26T19:58:11.532Z,37.40
2019-02-26T20:00:41.835Z,37.50
2019-02-26T20:03:12.123Z,37.70
2019-02-26T20:05:45.943Z,37.40
2019-02-26T20:08:14.442Z,37.20
2019-02-26T20:10:47.837Z,37.30
2019-02-26T20:13:16.639Z,37.10
2019-02-26T20:15:46.935Z,37.30
2019-02-26T20:18:21.180Z,37.50
2019-02-26T20:20:52.033Z,38.50
2019-02-26T20:23:22.387Z,39.20
2019-02-26T20:25:52.568Z,37.50
2019-02-26T20:28:22.957Z,39.20
2019-02-26T20:30:53.155Z,38.20
2019-02-26T20:33:23.468Z,40.00
2019-02-26T20:35:53.630Z,38.20
2019-02-26T20:38:23.952Z,39.40
2019-02-26T20:40:54.142Z,37.80
2019-02-26T20:43:24.403Z,38.90
2019-02-26T20:45:54.694Z,37.50
2019-02-26T20:48:25.033Z,37.30
2019-02-26T20:50:56.545Z,36.90
2019-02-26T20:53:27.041Z,37.60
2019-02-26T20:55:58.192Z,37.20
2019-02-26T20:58:28.534Z,38.10
2019-02-26T21:00:59.359Z,37.10
2019-02-26T21:03:29.735Z,36.90
2019-02-26T21:05:59.995Z,38.70
2019-02-26T21:08:31.024Z,36.90
2019-02-26T21:11:01.909Z,38.90
2019-02-26T21:13:34.657Z,39.00
2019-02-26T21:16:04.142Z,38.00
2019-02-26T21:18:34.351Z,38.50
2019-02-26T21:21:04.603Z,38.70
2019-02-26T21:23:34.951Z,43.50
2019-02-26T21:26:05.296Z,40.40
2019-02-26T21:28:35.593Z,39.70
2019-02-26T21:31:05.939Z,42.10
2019-02-26T21:33:36.282Z,39.30
2019-02-26T21:36:06.592Z,39.80
2019-02-26T21:38:38.778Z,39.30
2019-02-26T21:41:08.837Z,40.50
2019-02-26T21:43:39.215Z,40.90
2019-02-26T21:46:09.638Z,39.60
2019-02-26T21:48:39.937Z,39.70
2019-02-26T21:51:10.236Z,41.20
2019-02-26T21:53:40.446Z,39.30
2019-02-26T21:56:10.703Z,39.80
2019-02-26T21:58:40.869Z,39.10
2019-02-26T22:01:11.752Z,39.80
2019-02-26T22:03:42.645Z,38.90
2019-02-26T22:06:12.903Z,38.70
2019-02-26T22:08:43.207Z,38.40
2019-02-26T22:11:15.743Z,39.00
2019-02-26T22:13:45.354Z,39.20
2019-02-26T22:16:17.677Z,40.80
2019-02-26T22:18:47.633Z,39.50
2019-02-26T22:21:19.073Z,40.00
2019-02-26T22:23:49.931Z,40.00
2019-02-26T22:26:20.257Z,38.90
2019-02-26T22:28:50.635Z,39.70
2019-02-26T22:31:20.855Z,39.20
2019-02-26T22:33:51.159Z,39.60
2019-02-26T22:36:21.461Z,40.60
2019-02-26T22:38:51.851Z,39.90
2019-02-26T22:41:22.007Z,39.50
2019-02-26T22:43:52.329Z,41.70
2019-02-26T22:46:22.575Z,40.00
2019-02-26T22:48:52.859Z,40.90
2019-02-26T22:51:23.079Z,41.00
2019-02-26T22:53:53.375Z,42.70
2019-02-26T22:56:24.608Z,43.60
2019-02-26T22:58:55.099Z,40.90
2019-02-26T23:01:38.502Z,42.80
2019-02-26T23:04:08.828Z,41.20
2019-02-26T23:06:39.251Z,41.40
2019-02-26T23:09:11.836Z,40.60
2019-02-26T23:11:42.335Z,42.80
2019-02-26T23:14:12.555Z,42.10
2019-02-26T23:16:43.040Z,40.50
2019-02-26T23:19:13.467Z,40.00
2019-02-26T23:21:44.156Z,40.80
2019-02-26T23:24:15.016Z,39.80
2019-02-26T23:26:45.320Z,40.80
2019-02-26T23:29:15.580Z,41.50
2019-02-26T23:31:46.157Z,40.90
2019-02-26T23:34:16.470Z,40.40
2019-02-26T23:36:46.654Z,41.40
2019-02-26T23:39:17.545Z,42.40
2019-02-26T23:41:47.819Z,41.30
2019-02-26T23:44:18.652Z,40.40
2019-02-26T23:46:48.957Z,40.10
2019-02-26T23:49:19.276Z,41.10
2019-02-26T23:51:50.949Z,41.90
2019-02-26T23:54:21.630Z,40.80
2019-02-26T23:56:52.210Z,41.10
2019-02-26T23:59:22.878Z,40.20
